Thunder radar more information blitzortung!


Radar de pluja more information rain snow radar


Visita la nostra xarxa de llocs de meteo:

Template documentation
and downloads

And another site



No particular awareness of the weather is required.    There are no Weather-warnings

Pagina Historial Weather Underground text

Diari Resum Novembre 12, 2017 Unitats:  Tant    Imperial   Mètric
« Previous Dia
SegĂźent Dia »
Diari Setmana Mensual Anual Personalitzada
  Maxima: Minima: Media:
Temperatura: 65.5 °F /  18.6 °C 45.9 °F /  7.7 °C 54.1 °F /  12.3 °C
Punt de rosada: 48.7 °F /  9.3 °C 37.2 °F /  2.9 °C 42.6 °F /  5.9 °C
Humitat: 74 % 53 % 65 %
Wind Speed: 14 mph /  22.5 km/h - 3.2 mph /  5.1 km/h
RĂ fegues de vent: 14 mph /  22.5 km/h - -
Vent:- - SSE
Pression baro: 30.2 in /  1021.9 hPa 29.8 in /  1010.0 hPa -
Precipitacions: 0 in /  0.0 mm    
Historical Graphs
 
 
Dades de taula per Novembre 12, 2017
Temps Temperatura Punt de rosada Pression baro Vent Wind Speed RĂ fegues de vent Humitat Rainfall Rate (Hourly)
00:04 52.2 °F /  11.2 °C 41.2 °F /  5.1 °C 30.2 in /  1021.9 hPa NNW 1.2 mph /  1.9 km/h   66 % 0 in /  0.0 mm
00:09 52.2 °F /  11.2 °C 41.2 °F /  5.1 °C 30.2 in /  1021.9 hPa NNW 1.2 mph /  1.9 km/h   66 % 0 in /  0.0 mm
00:14 52 °F /  11.1 °C 41 °F /  5.0 °C 30.2 in /  1021.9 hPa NNE 2.3 mph /  3.7 km/h 2.3 mph /  3.7 km/h 66 % 0 in /  0.0 mm
00:19 51.8 °F /  11.0 °C 40.8 °F /  4.9 °C 30.2 in /  1021.9 hPa NE 2.3 mph /  3.7 km/h 2.3 mph /  3.7 km/h 66 % 0 in /  0.0 mm
00:24 51.8 °F /  11.0 °C 41.2 °F /  5.1 °C 30.2 in /  1021.9 hPa Calm     67 % 0 in /  0.0 mm
00:29 52 °F /  11.1 °C 41.4 °F /  5.2 °C 30.2 in /  1021.9 hPa NNW 1.6 mph /  2.6 km/h   67 % 0 in /  0.0 mm
00:34 51.8 °F /  11.0 °C 40.8 °F /  4.9 °C 30.2 in /  1021.9 hPa NW 1.6 mph /  2.6 km/h 1.6 mph /  2.6 km/h 66 % 0 in /  0.0 mm
00:39 51.8 °F /  11.0 °C 41.2 °F /  5.1 °C 30.2 in /  1021.9 hPa Calm     67 % 0 in /  0.0 mm
00:44 51.8 °F /  11.0 °C 41.2 °F /  5.1 °C 30.2 in /  1021.9 hPa NNW 1.6 mph /  2.6 km/h   67 % 0 in /  0.0 mm
00:49 51.4 °F /  10.8 °C 40.8 °F /  4.9 °C 30.2 in /  1021.9 hPa NNW 1.2 mph /  1.9 km/h   67 % 0 in /  0.0 mm
00:54 51.4 °F /  10.8 °C 40.8 °F /  4.9 °C 30.2 in /  1021.9 hPa NNE 1.4 mph /  2.3 km/h   67 % 0 in /  0.0 mm
00:56 51.4 °F /  10.8 °C 40.8 °F /  4.9 °C 30.2 in /  1021.9 hPa ENE 2.3 mph /  3.7 km/h 2.3 mph /  3.7 km/h 67 % 0 in /  0.0 mm
01:01 51.4 °F /  10.8 °C 40.8 °F /  4.9 °C 30.2 in /  1021.9 hPa NE 2.3 mph /  3.7 km/h 2.3 mph /  3.7 km/h 67 % 0 in /  0.0 mm
01:06 51.4 °F /  10.8 °C 40.8 °F /  4.9 °C 30.2 in /  1021.9 hPa NE 2.3 mph /  3.7 km/h 2.3 mph /  3.7 km/h 67 % 0 in /  0.0 mm
01:11 51.1 °F /  10.6 °C 40.1 °F /  4.5 °C 30.2 in /  1021.9 hPa NNE 2.4 mph /  3.9 km/h 2.4 mph /  3.9 km/h 66 % 0 in /  0.0 mm
01:16 51.1 °F /  10.6 °C 40.5 °F /  4.7 °C 30.2 in /  1021.9 hPa NNE 2.3 mph /  3.7 km/h 2.3 mph /  3.7 km/h 67 % 0 in /  0.0 mm
01:21 50.9 °F /  10.5 °C 40.3 °F /  4.6 °C 30.2 in /  1020.9 hPa NNE 2.3 mph /  3.7 km/h 2.3 mph /  3.7 km/h 67 % 0 in /  0.0 mm
01:26 50.9 °F /  10.5 °C 40.3 °F /  4.6 °C 30.2 in /  1020.9 hPa NNW 2.3 mph /  3.7 km/h   67 % 0 in /  0.0 mm
01:31 50.7 °F /  10.4 °C 40.3 °F /  4.6 °C 30.2 in /  1020.9 hPa NE 1.2 mph /  1.9 km/h 1.2 mph /  1.9 km/h 67 % 0 in /  0.0 mm
01:36 50.7 °F /  10.4 °C 40.3 °F /  4.6 °C 30.2 in /  1020.9 hPa North 2.3 mph /  3.7 km/h 2.3 mph /  3.7 km/h 67 % 0 in /  0.0 mm
01:41 50.4 °F /  10.2 °C 39.7 °F /  4.3 °C 30.2 in /  1020.9 hPa NNE 2.3 mph /  3.7 km/h 2.3 mph /  3.7 km/h 67 % 0 in /  0.0 mm
01:46 50.4 °F /  10.2 °C 39.7 °F /  4.3 °C 30.2 in /  1020.9 hPa West 2.3 mph /  3.7 km/h 2.3 mph /  3.7 km/h 67 % 0 in /  0.0 mm
01:51 49.8 °F /  9.9 °C 39.4 °F /  4.1 °C 30.1 in /  1019.9 hPa West 3.5 mph /  5.6 km/h   67 % 0 in /  0.0 mm
01:56 50.4 °F /  10.2 °C 39.7 °F /  4.3 °C 30.1 in /  1019.9 hPa NNW 4.6 mph /  7.4 km/h 4.6 mph /  7.4 km/h 67 % 0 in /  0.0 mm
02:01 50 °F /  10.0 °C 39.6 °F /  4.2 °C 30.1 in /  1019.9 hPa West 2.3 mph /  3.7 km/h 2.3 mph /  3.7 km/h 67 % 0 in /  0.0 mm
02:06 49.8 °F /  9.9 °C 39.4 °F /  4.1 °C 30.1 in /  1019.9 hPa West 2.3 mph /  3.7 km/h 2.3 mph /  3.7 km/h 67 % 0 in /  0.0 mm
02:11 50.2 °F /  10.1 °C 39.6 °F /  4.2 °C 30.1 in /  1019.9 hPa West 2.3 mph /  3.7 km/h   67 % 0 in /  0.0 mm
02:16 50.2 °F /  10.1 °C 39.9 °F /  4.4 °C 30.1 in /  1019.9 hPa WNW 1.2 mph /  1.9 km/h   68 % 0 in /  0.0 mm
02:21 50.4 °F /  10.2 °C 40.3 °F /  4.6 °C 30.1 in /  1019.9 hPa NNW 1.2 mph /  1.9 km/h   68 % 0 in /  0.0 mm
02:26 50.2 °F /  10.1 °C 39.9 °F /  4.4 °C 30.1 in /  1019.9 hPa WNW 1.6 mph /  2.6 km/h   68 % 0 in /  0.0 mm
02:31 50.2 °F /  10.1 °C 39.9 °F /  4.4 °C 30.1 in /  1019.9 hPa WNW 1.6 mph /  2.6 km/h 1.6 mph /  2.6 km/h 68 % 0 in /  0.0 mm
02:36 50 °F /  10.0 °C 39.7 °F /  4.3 °C 30.1 in /  1019.9 hPa WNW 2.4 mph /  3.9 km/h 2.4 mph /  3.9 km/h 68 % 0 in /  0.0 mm
02:41 50 °F /  10.0 °C 39.7 °F /  4.3 °C 30.1 in /  1019.9 hPa NE 1.2 mph /  1.9 km/h 1.4 mph /  2.3 km/h 68 % 0 in /  0.0 mm
02:47 49.8 °F /  9.9 °C 39.7 °F /  4.3 °C 30.1 in /  1019.9 hPa SW 1.4 mph /  2.3 km/h 1.4 mph /  2.3 km/h 68 % 0 in /  0.0 mm
02:52 49.6 °F /  9.8 °C 39.6 °F /  4.2 °C 30.1 in /  1018.8 hPa WSW 1.6 mph /  2.6 km/h 1.6 mph /  2.6 km/h 68 % 0 in /  0.0 mm
02:57 49.5 °F /  9.7 °C 39.7 °F /  4.3 °C 30.1 in /  1018.8 hPa SSW 1.4 mph /  2.3 km/h 1.4 mph /  2.3 km/h 69 % 0 in /  0.0 mm
03:02 49.1 °F /  9.5 °C 39.4 °F /  4.1 °C 30.1 in /  1018.8 hPa Calm     69 % 0 in /  0.0 mm
03:07 48.9 °F /  9.4 °C 39.2 °F /  4.0 °C 30.1 in /  1019.9 hPa SSW 1.2 mph /  1.9 km/h   69 % 0 in /  0.0 mm
03:12 48.9 °F /  9.4 °C 39.2 °F /  4.0 °C 30.1 in /  1019.9 hPa SSW 2.3 mph /  3.7 km/h 2.3 mph /  3.7 km/h 69 % 0 in /  0.0 mm
03:17 48.7 °F /  9.3 °C 39 °F /  3.9 °C 30.1 in /  1019.9 hPa SW 2.3 mph /  3.7 km/h 2.3 mph /  3.7 km/h 69 % 0 in /  0.0 mm
03:22 48.6 °F /  9.2 °C 38.8 °F /  3.8 °C 30.1 in /  1019.9 hPa West 1.2 mph /  1.9 km/h 1.2 mph /  1.9 km/h 69 % 0 in /  0.0 mm
03:27 48.7 °F /  9.3 °C 39.4 °F /  4.1 °C 30.1 in /  1019.9 hPa Calm     70 % 0 in /  0.0 mm
03:32 48.7 °F /  9.3 °C 39.4 °F /  4.1 °C 30.1 in /  1019.9 hPa NNE 2.3 mph /  3.7 km/h 2.3 mph /  3.7 km/h 70 % 0 in /  0.0 mm
03:37 48.9 °F /  9.4 °C 39.6 °F /  4.2 °C 30.1 in /  1019.9 hPa North 1.6 mph /  2.6 km/h   70 % 0 in /  0.0 mm
03:42 49.1 °F /  9.5 °C 39.7 °F /  4.3 °C 30.1 in /  1019.9 hPa NE 3.5 mph /  5.6 km/h 3.5 mph /  5.6 km/h 70 % 0 in /  0.0 mm
03:47 49.3 °F /  9.6 °C 39.9 °F /  4.4 °C 30.1 in /  1019.9 hPa Calm     70 % 0 in /  0.0 mm
03:52 49.1 °F /  9.5 °C 39.7 °F /  4.3 °C 30.1 in /  1019.9 hPa Calm     70 % 0 in /  0.0 mm
03:57 48.9 °F /  9.4 °C 39.6 °F /  4.2 °C 30.1 in /  1019.9 hPa NNE 2.3 mph /  3.7 km/h 2.3 mph /  3.7 km/h 70 % 0 in /  0.0 mm
04:02 48.9 °F /  9.4 °C 39.6 °F /  4.2 °C 30.1 in /  1019.9 hPa NW 1.2 mph /  1.9 km/h   70 % 0 in /  0.0 mm
04:07 48.9 °F /  9.4 °C 39.6 °F /  4.2 °C 30.1 in /  1019.9 hPa WNW 1.2 mph /  1.9 km/h   70 % 0 in /  0.0 mm
04:13 48.9 °F /  9.4 °C 39.6 °F /  4.2 °C 30.1 in /  1019.9 hPa NE 2.3 mph /  3.7 km/h 2.3 mph /  3.7 km/h 70 % 0 in /  0.0 mm
04:18 48.9 °F /  9.4 °C 39.6 °F /  4.2 °C 30.1 in /  1019.9 hPa NE 2.3 mph /  3.7 km/h 2.3 mph /  3.7 km/h 70 % 0 in /  0.0 mm
04:23 48.6 °F /  9.2 °C 39.2 °F /  4.0 °C 30.1 in /  1019.9 hPa ENE 2.3 mph /  3.7 km/h 2.3 mph /  3.7 km/h 70 % 0 in /  0.0 mm
04:24 48.6 °F /  9.2 °C 39.2 °F /  4.0 °C 30.1 in /  1019.9 hPa NNE 2.6 mph /  4.2 km/h 2.6 mph /  4.2 km/h 70 % 0 in /  0.0 mm
04:25 48.6 °F /  9.2 °C 39.2 °F /  4.0 °C 30.1 in /  1019.9 hPa NNE 3.5 mph /  5.6 km/h 3.5 mph /  5.6 km/h 70 % 0 in /  0.0 mm
04:28 48.6 °F /  9.2 °C 39.6 °F /  4.2 °C 30.1 in /  1019.9 hPa North 2.3 mph /  3.7 km/h 2.3 mph /  3.7 km/h 71 % 0 in /  0.0 mm
04:30 48.6 °F /  9.2 °C 39.2 °F /  4.0 °C 30.1 in /  1019.9 hPa North 3.5 mph /  5.6 km/h 3.5 mph /  5.6 km/h 70 % 0 in /  0.0 mm
04:35 48.6 °F /  9.2 °C 39.2 °F /  4.0 °C 30.1 in /  1019.9 hPa North 2.3 mph /  3.7 km/h 2.3 mph /  3.7 km/h 70 % 0 in /  0.0 mm
04:40 48.6 °F /  9.2 °C 39.2 °F /  4.0 °C 30.1 in /  1019.9 hPa WSW 2.3 mph /  3.7 km/h 2.3 mph /  3.7 km/h 70 % 0 in /  0.0 mm
04:45 48.4 °F /  9.1 °C 39.4 °F /  4.1 °C 30.1 in /  1019.9 hPa Calm     71 % 0 in /  0.0 mm
04:50 48.2 °F /  9.0 °C 39.2 °F /  4.0 °C 30.2 in /  1020.9 hPa NNE 1.6 mph /  2.6 km/h   71 % 0 in /  0.0 mm
05:00 47.8 °F /  8.8 °C 38.8 °F /  3.8 °C 30.2 in /  1020.9 hPa NE 1.2 mph /  1.9 km/h   71 % 0 in /  0.0 mm
05:05 47.8 °F /  8.8 °C 39.2 °F /  4.0 °C 30.1 in /  1019.9 hPa NE 1.2 mph /  1.9 km/h   72 % 0 in /  0.0 mm
05:10 47.7 °F /  8.7 °C 39 °F /  3.9 °C 30.1 in /  1019.9 hPa Calm     72 % 0 in /  0.0 mm
05:15 47.5 °F /  8.6 °C 38.8 °F /  3.8 °C 30.1 in /  1019.9 hPa Calm     72 % 0 in /  0.0 mm
05:20 47.3 °F /  8.5 °C 38.7 °F /  3.7 °C 30.1 in /  1019.9 hPa NW 1.2 mph /  1.9 km/h   72 % 0 in /  0.0 mm
05:25 47.1 °F /  8.4 °C 38.7 °F /  3.7 °C 30.1 in /  1019.9 hPa SW 2.2 mph /  3.5 km/h 2.2 mph /  3.5 km/h 72 % 0 in /  0.0 mm
05:30 46.8 °F /  8.2 °C 38.1 °F /  3.4 °C 30.1 in /  1019.9 hPa SSE 1.2 mph /  1.9 km/h   72 % 0 in /  0.0 mm
05:35 46.6 °F /  8.1 °C 37.9 °F /  3.3 °C 30.1 in /  1019.9 hPa NNE 3.5 mph /  5.6 km/h 3.5 mph /  5.6 km/h 72 % 0 in /  0.0 mm
05:40 46.6 °F /  8.1 °C 38.5 °F /  3.6 °C 30.1 in /  1019.9 hPa ENE 1.2 mph /  1.9 km/h   73 % 0 in /  0.0 mm
05:45 46 °F /  7.8 °C 37.9 °F /  3.3 °C 30.1 in /  1019.9 hPa Calm     73 % 0 in /  0.0 mm
05:50 45.9 °F /  7.7 °C 37.2 °F /  2.9 °C 30.1 in /  1018.8 hPa WSW 2.3 mph /  3.7 km/h 2.3 mph /  3.7 km/h 72 % 0 in /  0.0 mm
05:55 46.2 °F /  7.9 °C 37.9 °F /  3.3 °C 30.1 in /  1018.8 hPa West 2.3 mph /  3.7 km/h 2.3 mph /  3.7 km/h 73 % 0 in /  0.0 mm
06:00 46.6 °F /  8.1 °C 38.5 °F /  3.6 °C 30.1 in /  1018.8 hPa ENE 3.5 mph /  5.6 km/h 3.5 mph /  5.6 km/h 73 % 0 in /  0.0 mm
06:05 47.3 °F /  8.5 °C 39.4 °F /  4.1 °C 30.1 in /  1019.9 hPa WNW 3.5 mph /  5.6 km/h 3.5 mph /  5.6 km/h 74 % 0 in /  0.0 mm
06:10 47.5 °F /  8.6 °C 39.4 °F /  4.1 °C 30.1 in /  1019.9 hPa ENE 3.5 mph /  5.6 km/h 3.5 mph /  5.6 km/h 73 % 0 in /  0.0 mm
06:15 47.5 °F /  8.6 °C 39.4 °F /  4.1 °C 30.1 in /  1019.9 hPa NNE 2.3 mph /  3.7 km/h 2.3 mph /  3.7 km/h 73 % 0 in /  0.0 mm
06:20 47.7 °F /  8.7 °C 39.4 °F /  4.1 °C 30.1 in /  1019.9 hPa NNE 3.5 mph /  5.6 km/h 3.5 mph /  5.6 km/h 73 % 0 in /  0.0 mm
06:30 47.7 °F /  8.7 °C 39.4 °F /  4.1 °C 30.1 in /  1019.9 hPa East 1.2 mph /  1.9 km/h 1.4 mph /  2.3 km/h 73 % 0 in /  0.0 mm
06:35 47.7 °F /  8.7 °C 39.4 °F /  4.1 °C 30.1 in /  1019.9 hPa NNW 3.5 mph /  5.6 km/h 3.5 mph /  5.6 km/h 73 % 0 in /  0.0 mm
06:40 47.5 °F /  8.6 °C 39.4 °F /  4.1 °C 30.1 in /  1019.9 hPa NNW 3.5 mph /  5.6 km/h 3.5 mph /  5.6 km/h 73 % 0 in /  0.0 mm
06:45 47.5 °F /  8.6 °C 39.4 °F /  4.1 °C 30.1 in /  1019.9 hPa NW 3.5 mph /  5.6 km/h 3.5 mph /  5.6 km/h 73 % 0 in /  0.0 mm
06:50 47.7 °F /  8.7 °C 39.4 °F /  4.1 °C 30.1 in /  1019.9 hPa ENE 3.5 mph /  5.6 km/h 3.5 mph /  5.6 km/h 73 % 0 in /  0.0 mm
06:55 47.7 °F /  8.7 °C 39.4 °F /  4.1 °C 30.1 in /  1019.9 hPa NNW 3.5 mph /  5.6 km/h 3.5 mph /  5.6 km/h 73 % 0 in /  0.0 mm
07:00 47.7 °F /  8.7 °C 39.4 °F /  4.1 °C 30.1 in /  1019.9 hPa NNW 2.3 mph /  3.7 km/h 2.3 mph /  3.7 km/h 73 % 0 in /  0.0 mm
07:05 47.5 °F /  8.6 °C 39.4 °F /  4.1 °C 30.1 in /  1019.9 hPa WNW 2.3 mph /  3.7 km/h 2.3 mph /  3.7 km/h 73 % 0 in /  0.0 mm
07:10 47.3 °F /  8.5 °C 39 °F /  3.9 °C 30.1 in /  1019.9 hPa WNW 2.3 mph /  3.7 km/h 2.3 mph /  3.7 km/h 73 % 0 in /  0.0 mm
07:15 47.3 °F /  8.5 °C 39 °F /  3.9 °C 30.1 in /  1019.9 hPa NNW 3.5 mph /  5.6 km/h 3.5 mph /  5.6 km/h 73 % 0 in /  0.0 mm
07:20 47.1 °F /  8.4 °C 38.8 °F /  3.8 °C 30.1 in /  1019.9 hPa WNW 1.2 mph /  1.9 km/h 1.2 mph /  1.9 km/h 73 % 0 in /  0.0 mm
07:21 46.9 °F /  8.3 °C 38.7 °F /  3.7 °C 30.1 in /  1019.9 hPa West 1.2 mph /  1.9 km/h 1.2 mph /  1.9 km/h 73 % 0 in /  0.0 mm
07:26 46.9 °F /  8.3 °C 38.7 °F /  3.7 °C 30.1 in /  1019.9 hPa NNE 2.4 mph /  3.9 km/h 2.4 mph /  3.9 km/h 73 % 0 in /  0.0 mm
07:27 46.9 °F /  8.3 °C 38.7 °F /  3.7 °C 30.1 in /  1019.9 hPa NW 2.3 mph /  3.7 km/h 2.3 mph /  3.7 km/h 73 % 0 in /  0.0 mm
07:32 46.8 °F /  8.2 °C 38.8 °F /  3.8 °C 30.1 in /  1019.9 hPa ENE 2.3 mph /  3.7 km/h 2.3 mph /  3.7 km/h 74 % 0 in /  0.0 mm
07:37 46.9 °F /  8.3 °C 39 °F /  3.9 °C 30.1 in /  1019.9 hPa NE 2.3 mph /  3.7 km/h 2.3 mph /  3.7 km/h 74 % 0 in /  0.0 mm
07:42 47.1 °F /  8.4 °C 39.4 °F /  4.1 °C 30.1 in /  1019.9 hPa East 2.3 mph /  3.7 km/h 2.3 mph /  3.7 km/h 74 % 0 in /  0.0 mm
07:43 47.1 °F /  8.4 °C 39.4 °F /  4.1 °C 30.1 in /  1019.9 hPa ENE 2.3 mph /  3.7 km/h 2.3 mph /  3.7 km/h 74 % 0 in /  0.0 mm
07:48 47.5 °F /  8.6 °C 39.6 °F /  4.2 °C 30.1 in /  1019.9 hPa NE 4.7 mph /  7.6 km/h 4.7 mph /  7.6 km/h 74 % 0 in /  0.0 mm
07:53 47.7 °F /  8.7 °C 39.7 °F /  4.3 °C 30.1 in /  1019.9 hPa NNE 4.7 mph /  7.6 km/h 4.7 mph /  7.6 km/h 74 % 0 in /  0.0 mm
07:58 47.8 °F /  8.8 °C 39.9 °F /  4.4 °C 30.1 in /  1019.9 hPa WSW 1.6 mph /  2.6 km/h   74 % 0 in /  0.0 mm
08:03 48 °F /  8.9 °C 40.1 °F /  4.5 °C 30.1 in /  1019.9 hPa WSW 1.2 mph /  1.9 km/h   74 % 0 in /  0.0 mm
08:08 47.8 °F /  8.8 °C 39.9 °F /  4.4 °C 30.1 in /  1019.9 hPa NW 1.2 mph /  1.9 km/h   74 % 0 in /  0.0 mm
08:13 48.2 °F /  9.0 °C 40.3 °F /  4.6 °C 30.1 in /  1019.9 hPa NW 1.2 mph /  1.9 km/h   74 % 0 in /  0.0 mm
08:18 48.7 °F /  9.3 °C 40.8 °F /  4.9 °C 30.1 in /  1019.9 hPa ENE 2.3 mph /  3.7 km/h 2.3 mph /  3.7 km/h 74 % 0 in /  0.0 mm
08:23 48.6 °F /  9.2 °C 40.3 °F /  4.6 °C 30.1 in /  1019.9 hPa SW 2.3 mph /  3.7 km/h 2.3 mph /  3.7 km/h 73 % 0 in /  0.0 mm
08:28 49.1 °F /  9.5 °C 40.8 °F /  4.9 °C 30.1 in /  1019.9 hPa NNE 1.4 mph /  2.3 km/h 1.4 mph /  2.3 km/h 73 % 0 in /  0.0 mm
08:33 49.8 °F /  9.9 °C 41.5 °F /  5.3 °C 30.1 in /  1019.9 hPa North 2.3 mph /  3.7 km/h 2.3 mph /  3.7 km/h 73 % 0 in /  0.0 mm
08:38 50.2 °F /  10.1 °C 41.9 °F /  5.5 °C 30.1 in /  1019.9 hPa ENE 2.3 mph /  3.7 km/h 2.3 mph /  3.7 km/h 73 % 0 in /  0.0 mm
08:43 50.7 °F /  10.4 °C 42.1 °F /  5.6 °C 30.1 in /  1019.9 hPa WNW 2.3 mph /  3.7 km/h 2.3 mph /  3.7 km/h 72 % 0 in /  0.0 mm
08:48 51.3 °F /  10.7 °C 42.4 °F /  5.8 °C 30.1 in /  1019.9 hPa ENE 1.6 mph /  2.6 km/h 1.6 mph /  2.6 km/h 72 % 0 in /  0.0 mm
08:53 51.8 °F /  11.0 °C 43.2 °F /  6.2 °C 30.1 in /  1019.9 hPa West 2.3 mph /  3.7 km/h 2.3 mph /  3.7 km/h 72 % 0 in /  0.0 mm
08:58 51.8 °F /  11.0 °C 42.6 °F /  5.9 °C 30.1 in /  1019.9 hPa ENE 3.1 mph /  5.0 km/h 3.1 mph /  5.0 km/h 71 % 0 in /  0.0 mm
09:03 52.2 °F /  11.2 °C 43 °F /  6.1 °C 30.1 in /  1019.9 hPa NNW 2.3 mph /  3.7 km/h 2.3 mph /  3.7 km/h 71 % 0 in /  0.0 mm
09:08 52.7 °F /  11.5 °C 43.5 °F /  6.4 °C 30.1 in /  1019.9 hPa NW 2.3 mph /  3.7 km/h 2.3 mph /  3.7 km/h 71 % 0 in /  0.0 mm
09:13 52.5 °F /  11.4 °C 43 °F /  6.1 °C 30.1 in /  1019.9 hPa NE 3.5 mph /  5.6 km/h 3.5 mph /  5.6 km/h 70 % 0 in /  0.0 mm
09:18 52.9 °F /  11.6 °C 43 °F /  6.1 °C 30.1 in /  1019.9 hPa North 3.5 mph /  5.6 km/h 3.5 mph /  5.6 km/h 69 % 0 in /  0.0 mm
09:23 53.1 °F /  11.7 °C 43.2 °F /  6.2 °C 30.1 in /  1019.9 hPa ENE 3.5 mph /  5.6 km/h 3.5 mph /  5.6 km/h 69 % 0 in /  0.0 mm
09:28 53.8 °F /  12.1 °C 43.9 °F /  6.6 °C 30.1 in /  1019.9 hPa NNE 1.2 mph /  1.9 km/h   69 % 0 in /  0.0 mm
09:34 54 °F /  12.2 °C 44.1 °F /  6.7 °C 30.1 in /  1019.9 hPa NNE 2.3 mph /  3.7 km/h 2.6 mph /  4.2 km/h 69 % 0 in /  0.0 mm
09:39 54 °F /  12.2 °C 43.5 °F /  6.4 °C 30.1 in /  1019.9 hPa NNE 4.6 mph /  7.4 km/h 4.6 mph /  7.4 km/h 68 % 0 in /  0.0 mm
09:44 53.8 °F /  12.1 °C 43.5 °F /  6.4 °C 30.1 in /  1019.9 hPa NNE 5.6 mph /  9.0 km/h 5.6 mph /  9.0 km/h 68 % 0 in /  0.0 mm
09:49 53.6 °F /  12.0 °C 43.3 °F /  6.3 °C 30.1 in /  1019.9 hPa North 5.4 mph /  8.7 km/h 5.4 mph /  8.7 km/h 68 % 0 in /  0.0 mm
09:54 53.6 °F /  12.0 °C 43.3 °F /  6.3 °C 30.1 in /  1018.8 hPa ENE 4.6 mph /  7.4 km/h 4.6 mph /  7.4 km/h 68 % 0 in /  0.0 mm
09:59 54 °F /  12.2 °C 43.5 °F /  6.4 °C 30.1 in /  1018.8 hPa ENE 4.6 mph /  7.4 km/h 4.6 mph /  7.4 km/h 68 % 0 in /  0.0 mm
10:04 54.3 °F /  12.4 °C 43.5 °F /  6.4 °C 30.1 in /  1018.8 hPa NNE 6.2 mph /  10.0 km/h 6.2 mph /  10.0 km/h 67 % 0 in /  0.0 mm
10:09 54.3 °F /  12.4 °C 43.5 °F /  6.4 °C 30.1 in /  1019.9 hPa ENE 5.9 mph /  9.5 km/h 5.9 mph /  9.5 km/h 67 % 0 in /  0.0 mm
10:14 55.2 °F /  12.9 °C 44.4 °F /  6.9 °C 30.1 in /  1019.9 hPa NE 2.3 mph /  3.7 km/h 2.3 mph /  3.7 km/h 67 % 0 in /  0.0 mm
10:19 55.6 °F /  13.1 °C 44.8 °F /  7.1 °C 30.1 in /  1019.9 hPa ENE 3.5 mph /  5.6 km/h 3.5 mph /  5.6 km/h 67 % 0 in /  0.0 mm
10:24 55.9 °F /  13.3 °C 45.1 °F /  7.3 °C 30.1 in /  1019.9 hPa NNE 3.5 mph /  5.6 km/h 3.5 mph /  5.6 km/h 67 % 0 in /  0.0 mm
10:29 56.5 °F /  13.6 °C 45.7 °F /  7.6 °C 30.1 in /  1019.9 hPa NW 3.5 mph /  5.6 km/h 3.5 mph /  5.6 km/h 67 % 0 in /  0.0 mm
10:34 57.2 °F /  14.0 °C 45.9 °F /  7.7 °C 30.1 in /  1019.9 hPa WSW 3.1 mph /  5.0 km/h 3.1 mph /  5.0 km/h 66 % 0 in /  0.0 mm
10:39 57.6 °F /  14.2 °C 45.9 °F /  7.7 °C 30.1 in /  1019.9 hPa West 4.6 mph /  7.4 km/h 4.6 mph /  7.4 km/h 65 % 0 in /  0.0 mm
10:44 57.6 °F /  14.2 °C 45.9 °F /  7.7 °C 30.1 in /  1019.9 hPa NNE 4.6 mph /  7.4 km/h 4.6 mph /  7.4 km/h 65 % 0 in /  0.0 mm
10:49 57.6 °F /  14.2 °C 45.9 °F /  7.7 °C 30.1 in /  1019.9 hPa West 4.9 mph /  7.9 km/h 4.9 mph /  7.9 km/h 65 % 0 in /  0.0 mm
10:54 57.9 °F /  14.4 °C 45.9 °F /  7.7 °C 30.1 in /  1019.9 hPa West 2.3 mph /  3.7 km/h 2.3 mph /  3.7 km/h 64 % 0 in /  0.0 mm
10:59 58.5 °F /  14.7 °C 46.2 °F /  7.9 °C 30.1 in /  1019.9 hPa North 3.5 mph /  5.6 km/h 3.5 mph /  5.6 km/h 64 % 0 in /  0.0 mm
11:04 58.3 °F /  14.6 °C 46.2 °F /  7.9 °C 30.1 in /  1019.9 hPa NNW 5.8 mph /  9.3 km/h 5.8 mph /  9.3 km/h 64 % 0 in /  0.0 mm
11:09 58.6 °F /  14.8 °C 46 °F /  7.8 °C 30.1 in /  1019.9 hPa South 4 mph /  6.4 km/h 4 mph /  6.4 km/h 63 % 0 in /  0.0 mm
11:14 58.8 °F /  14.9 °C 46.2 °F /  7.9 °C 30.1 in /  1019.9 hPa WSW 3.5 mph /  5.6 km/h 3.5 mph /  5.6 km/h 63 % 0 in /  0.0 mm
11:19 59 °F /  15.0 °C 46.4 °F /  8.0 °C 30.1 in /  1019.9 hPa WNW 4.3 mph /  6.9 km/h 4.3 mph /  6.9 km/h 63 % 0 in /  0.0 mm
11:24 59.2 °F /  15.1 °C 46.6 °F /  8.1 °C 30.1 in /  1019.9 hPa WNW 3.6 mph /  5.8 km/h 4.7 mph /  7.6 km/h 63 % 0 in /  0.0 mm
11:29 59.2 °F /  15.1 °C 46.2 °F /  7.9 °C 30.1 in /  1019.9 hPa WNW 4.6 mph /  7.4 km/h 4.6 mph /  7.4 km/h 62 % 0 in /  0.0 mm
11:34 59.4 °F /  15.2 °C 46.2 °F /  7.9 °C 30.1 in /  1019.9 hPa NNW 3.5 mph /  5.6 km/h 3.5 mph /  5.6 km/h 62 % 0 in /  0.0 mm
11:39 59.4 °F /  15.2 °C 46.2 °F /  7.9 °C 30.1 in /  1019.9 hPa NW 3.5 mph /  5.6 km/h 3.5 mph /  5.6 km/h 62 % 0 in /  0.0 mm
11:44 58.6 °F /  14.8 °C 45.1 °F /  7.3 °C 30.1 in /  1019.9 hPa ENE 5.8 mph /  9.3 km/h 5.9 mph /  9.5 km/h 61 % 0 in /  0.0 mm
11:49 57.9 °F /  14.4 °C 44.4 °F /  6.9 °C 30.1 in /  1019.9 hPa NNE 5.8 mph /  9.3 km/h 5.8 mph /  9.3 km/h 61 % 0 in /  0.0 mm
11:54 57.7 °F /  14.3 °C 44.4 °F /  6.9 °C 30.1 in /  1019.9 hPa NE 9.2 mph /  14.8 km/h 9.2 mph /  14.8 km/h 61 % 0 in /  0.0 mm
11:59 57.6 °F /  14.2 °C 44.2 °F /  6.8 °C 30.1 in /  1019.9 hPa East 5.8 mph /  9.3 km/h 5.8 mph /  9.3 km/h 61 % 0 in /  0.0 mm
12:04 57.6 °F /  14.2 °C 44.2 °F /  6.8 °C 30.1 in /  1019.9 hPa WNW 8.1 mph /  13.0 km/h 8.1 mph /  13.0 km/h 61 % 0 in /  0.0 mm
12:09 58.1 °F /  14.5 °C 45.1 °F /  7.3 °C 30.1 in /  1018.8 hPa ENE 4 mph /  6.4 km/h 4 mph /  6.4 km/h 62 % 0 in /  0.0 mm
12:14 58.3 °F /  14.6 °C 45 °F /  7.2 °C 30.1 in /  1018.8 hPa NNW 3.5 mph /  5.6 km/h 3.5 mph /  5.6 km/h 61 % 0 in /  0.0 mm
12:19 58.5 °F /  14.7 °C 45.1 °F /  7.3 °C 30.1 in /  1018.8 hPa ENE 5.8 mph /  9.3 km/h 5.8 mph /  9.3 km/h 61 % 0 in /  0.0 mm
12:24 58.1 °F /  14.5 °C 44.8 °F /  7.1 °C 30.1 in /  1018.8 hPa NNE 5.6 mph /  9.0 km/h 5.6 mph /  9.0 km/h 61 % 0 in /  0.0 mm
12:29 58.3 °F /  14.6 °C 45 °F /  7.2 °C 30.1 in /  1018.8 hPa NE 3.6 mph /  5.8 km/h 3.6 mph /  5.8 km/h 61 % 0 in /  0.0 mm
12:34 58.3 °F /  14.6 °C 45 °F /  7.2 °C 30.1 in /  1018.8 hPa ESE 5.9 mph /  9.5 km/h 5.9 mph /  9.5 km/h 61 % 0 in /  0.0 mm
12:39 58.1 °F /  14.5 °C 44.8 °F /  7.1 °C 30.1 in /  1018.8 hPa NNE 5.8 mph /  9.3 km/h 5.8 mph /  9.3 km/h 61 % 0 in /  0.0 mm
12:44 58.3 °F /  14.6 °C 45 °F /  7.2 °C 30.1 in /  1018.8 hPa NE 11.5 mph /  18.5 km/h 11.5 mph /  18.5 km/h 61 % 0 in /  0.0 mm
12:49 57.9 °F /  14.4 °C 44.4 °F /  6.9 °C 30.1 in /  1018.8 hPa NNE 6.9 mph /  11.1 km/h 6.9 mph /  11.1 km/h 61 % 0 in /  0.0 mm
12:54 58.1 °F /  14.5 °C 44.8 °F /  7.1 °C 30.1 in /  1017.8 hPa NNE 7.4 mph /  11.9 km/h 7.4 mph /  11.9 km/h 61 % 0 in /  0.0 mm
12:59 58.3 °F /  14.6 °C 45 °F /  7.2 °C 30.1 in /  1017.8 hPa ENE 8.1 mph /  13.0 km/h 8.1 mph /  13.0 km/h 61 % 0 in /  0.0 mm
13:04 58.5 °F /  14.7 °C 45.1 °F /  7.3 °C 30.1 in /  1017.8 hPa ENE 6.9 mph /  11.1 km/h 6.9 mph /  11.1 km/h 61 % 0 in /  0.0 mm
13:09 58.5 °F /  14.7 °C 45.1 °F /  7.3 °C 30.1 in /  1017.8 hPa ENE 6.2 mph /  10.0 km/h 6.2 mph /  10.0 km/h 61 % 0 in /  0.0 mm
13:14 58.3 °F /  14.6 °C 45 °F /  7.2 °C 30.1 in /  1017.8 hPa NNE 5.8 mph /  9.3 km/h 5.8 mph /  9.3 km/h 61 % 0 in /  0.0 mm
13:19 58.3 °F /  14.6 °C 45 °F /  7.2 °C 30.1 in /  1017.8 hPa ENE 4.6 mph /  7.4 km/h 4.6 mph /  7.4 km/h 61 % 0 in /  0.0 mm
13:24 58.1 °F /  14.5 °C 44.8 °F /  7.1 °C 30.1 in /  1017.8 hPa NE 4.9 mph /  7.9 km/h 4.9 mph /  7.9 km/h 61 % 0 in /  0.0 mm
13:29 58.1 °F /  14.5 °C 44.8 °F /  7.1 °C 30.1 in /  1017.8 hPa NE 8.1 mph /  13.0 km/h 8.1 mph /  13.0 km/h 61 % 0 in /  0.0 mm
13:34 57.9 °F /  14.4 °C 44.1 °F /  6.7 °C 30.1 in /  1017.8 hPa NNE 8.5 mph /  13.7 km/h 8.5 mph /  13.7 km/h 60 % 0 in /  0.0 mm
13:39 58.1 °F /  14.5 °C 44.8 °F /  7.1 °C 30.1 in /  1017.8 hPa NNE 4.6 mph /  7.4 km/h 4.6 mph /  7.4 km/h 61 % 0 in /  0.0 mm
13:44 58.5 °F /  14.7 °C 45.1 °F /  7.3 °C 30.1 in /  1017.8 hPa NNE 5.4 mph /  8.7 km/h 5.4 mph /  8.7 km/h 61 % 0 in /  0.0 mm
13:49 58.5 °F /  14.7 °C 45.1 °F /  7.3 °C 30.1 in /  1017.8 hPa NNE 4.6 mph /  7.4 km/h 4.6 mph /  7.4 km/h 61 % 0 in /  0.0 mm
13:54 58.5 °F /  14.7 °C 45.1 °F /  7.3 °C 30.1 in /  1017.8 hPa NNE 8.1 mph /  13.0 km/h 8.1 mph /  13.0 km/h 61 % 0 in /  0.0 mm
13:59 58.5 °F /  14.7 °C 45.1 °F /  7.3 °C 30.1 in /  1017.8 hPa NNE 2.3 mph /  3.7 km/h 2.4 mph /  3.9 km/h 61 % 0 in /  0.0 mm
14:04 58.8 °F /  14.9 °C 45.3 °F /  7.4 °C 30 in /  1015.8 hPa NNE 5.8 mph /  9.3 km/h 5.8 mph /  9.3 km/h 61 % 0 in /  0.0 mm
14:09 58.8 °F /  14.9 °C 45.3 °F /  7.4 °C 30 in /  1015.8 hPa North 5.8 mph /  9.3 km/h 5.8 mph /  9.3 km/h 61 % 0 in /  0.0 mm
14:14 59 °F /  15.0 °C 45.7 °F /  7.6 °C 30 in /  1015.8 hPa NNE 4 mph /  6.4 km/h 4 mph /  6.4 km/h 61 % 0 in /  0.0 mm
14:19 59.4 °F /  15.2 °C 45.9 °F /  7.7 °C 30 in /  1015.8 hPa NE 4.6 mph /  7.4 km/h 4.6 mph /  7.4 km/h 61 % 0 in /  0.0 mm
14:24 59.2 °F /  15.1 °C 45.3 °F /  7.4 °C 30 in /  1015.8 hPa ESE 4.6 mph /  7.4 km/h 4.6 mph /  7.4 km/h 60 % 0 in /  0.0 mm
14:29 59.4 °F /  15.2 °C 45.5 °F /  7.5 °C 30 in /  1015.8 hPa NE 3.6 mph /  5.8 km/h 3.6 mph /  5.8 km/h 60 % 0 in /  0.0 mm
14:30 59.4 °F /  15.2 °C 45.9 °F /  7.7 °C 30 in /  1015.8 hPa NE 3.5 mph /  5.6 km/h 3.5 mph /  5.6 km/h 61 % 0 in /  0.0 mm
14:35 59.4 °F /  15.2 °C 45.5 °F /  7.5 °C 30 in /  1014.8 hPa NNE 6.9 mph /  11.1 km/h 6.9 mph /  11.1 km/h 60 % 0 in /  0.0 mm
14:40 59.4 °F /  15.2 °C 45.5 °F /  7.5 °C 30 in /  1014.8 hPa NNE 3.5 mph /  5.6 km/h 3.5 mph /  5.6 km/h 60 % 0 in /  0.0 mm
14:45 59.7 °F /  15.4 °C 45.9 °F /  7.7 °C 30 in /  1014.8 hPa NNE 6.9 mph /  11.1 km/h 6.9 mph /  11.1 km/h 60 % 0 in /  0.0 mm
14:50 59.9 °F /  15.5 °C 46 °F /  7.8 °C 30 in /  1014.8 hPa NW 5.8 mph /  9.3 km/h 5.8 mph /  9.3 km/h 60 % 0 in /  0.0 mm
14:55 59.9 °F /  15.5 °C 46 °F /  7.8 °C 30 in /  1014.8 hPa NNE 5.8 mph /  9.3 km/h 5.8 mph /  9.3 km/h 60 % 0 in /  0.0 mm
15:00 60.1 °F /  15.6 °C 46 °F /  7.8 °C 30 in /  1014.8 hPa ENE 3.5 mph /  5.6 km/h 3.5 mph /  5.6 km/h 60 % 0 in /  0.0 mm
15:05 61.2 °F /  16.2 °C 47.1 °F /  8.4 °C 30 in /  1014.8 hPa SW 2.3 mph /  3.7 km/h 2.3 mph /  3.7 km/h 60 % 0 in /  0.0 mm
15:09 62.1 °F /  16.7 °C 48 °F /  8.9 °C 30 in /  1014.8 hPa SSW 4.6 mph /  7.4 km/h 4.6 mph /  7.4 km/h 60 % 0 in /  0.0 mm
15:14 63.9 °F /  17.7 °C 48.7 °F /  9.3 °C 30 in /  1014.8 hPa WNW 4.6 mph /  7.4 km/h 4.6 mph /  7.4 km/h 58 % 0 in /  0.0 mm
15:19 64.4 °F /  18.0 °C 48.4 °F /  9.1 °C 30 in /  1015.8 hPa WNW 5.8 mph /  9.3 km/h 5.8 mph /  9.3 km/h 56 % 0 in /  0.0 mm
15:24 64.4 °F /  18.0 °C 47.8 °F /  8.8 °C 30 in /  1015.8 hPa SW 2.3 mph /  3.7 km/h 2.3 mph /  3.7 km/h 55 % 0 in /  0.0 mm
15:29 64.6 °F /  18.1 °C 48 °F /  8.9 °C 30 in /  1015.8 hPa West 5.8 mph /  9.3 km/h 5.8 mph /  9.3 km/h 55 % 0 in /  0.0 mm
15:34 64.8 °F /  18.2 °C 47.7 °F /  8.7 °C 30 in /  1015.8 hPa NE 2.3 mph /  3.7 km/h 2.3 mph /  3.7 km/h 54 % 0 in /  0.0 mm
15:39 65.1 °F /  18.4 °C 48 °F /  8.9 °C 30 in /  1015.8 hPa WSW 3.5 mph /  5.6 km/h 3.5 mph /  5.6 km/h 54 % 0 in /  0.0 mm
15:44 65.5 °F /  18.6 °C 48.4 °F /  9.1 °C 30 in /  1015.8 hPa NW 4.6 mph /  7.4 km/h 4.6 mph /  7.4 km/h 54 % 0 in /  0.0 mm
15:49 65.3 °F /  18.5 °C 48.2 °F /  9.0 °C 30 in /  1015.8 hPa WSW 1.2 mph /  1.9 km/h 1.2 mph /  1.9 km/h 54 % 0 in /  0.0 mm
15:54 65.5 °F /  18.6 °C 48.4 °F /  9.1 °C 30 in /  1015.8 hPa SW 3.5 mph /  5.6 km/h 3.5 mph /  5.6 km/h 54 % 0 in /  0.0 mm
15:59 65.3 °F /  18.5 °C 47.7 °F /  8.7 °C 30 in /  1015.8 hPa East 2.3 mph /  3.7 km/h 2.3 mph /  3.7 km/h 53 % 0 in /  0.0 mm
16:04 64.2 °F /  17.9 °C 46.8 °F /  8.2 °C 30 in /  1015.8 hPa NNW 2.3 mph /  3.7 km/h 2.3 mph /  3.7 km/h 53 % 0 in /  0.0 mm
16:09 63 °F /  17.2 °C 46 °F /  7.8 °C 30 in /  1015.8 hPa NNW 3.5 mph /  5.6 km/h 3.5 mph /  5.6 km/h 54 % 0 in /  0.0 mm
16:14 62.8 °F /  17.1 °C 45.9 °F /  7.7 °C 30 in /  1015.8 hPa NW 2.3 mph /  3.7 km/h 2.3 mph /  3.7 km/h 54 % 0 in /  0.0 mm
16:19 62.2 °F /  16.8 °C 45.9 °F /  7.7 °C 30 in /  1014.8 hPa NNE 3.5 mph /  5.6 km/h 3.5 mph /  5.6 km/h 55 % 0 in /  0.0 mm
16:24 61.9 °F /  16.6 °C 45.5 °F /  7.5 °C 30 in /  1014.8 hPa NNE 4 mph /  6.4 km/h 4 mph /  6.4 km/h 55 % 0 in /  0.0 mm
16:29 61 °F /  16.1 °C 45.1 °F /  7.3 °C 30 in /  1014.8 hPa SE 3.5 mph /  5.6 km/h 3.5 mph /  5.6 km/h 56 % 0 in /  0.0 mm
16:34 60.6 °F /  15.9 °C 44.8 °F /  7.1 °C 30 in /  1014.8 hPa ENE 5.8 mph /  9.3 km/h 5.8 mph /  9.3 km/h 56 % 0 in /  0.0 mm
16:39 60.4 °F /  15.8 °C 44.8 °F /  7.1 °C 30 in /  1014.8 hPa NE 2.3 mph /  3.7 km/h 2.3 mph /  3.7 km/h 56 % 0 in /  0.0 mm
16:44 60.1 °F /  15.6 °C 44.2 °F /  6.8 °C 30 in /  1014.8 hPa ENE 2.4 mph /  3.9 km/h 2.4 mph /  3.9 km/h 56 % 0 in /  0.0 mm
16:49 60.1 °F /  15.6 °C 44.8 °F /  7.1 °C 30 in /  1015.8 hPa ENE 4.6 mph /  7.4 km/h 4.6 mph /  7.4 km/h 57 % 0 in /  0.0 mm
16:54 59.9 °F /  15.5 °C 44.6 °F /  7.0 °C 30 in /  1015.8 hPa NE 3.5 mph /  5.6 km/h 3.5 mph /  5.6 km/h 57 % 0 in /  0.0 mm
16:59 59.4 °F /  15.2 °C 44.1 °F /  6.7 °C 30 in /  1015.8 hPa NE 3.5 mph /  5.6 km/h 3.5 mph /  5.6 km/h 57 % 0 in /  0.0 mm
17:04 59.2 °F /  15.1 °C 43.9 °F /  6.6 °C 30 in /  1014.8 hPa NNE 2.3 mph /  3.7 km/h 2.3 mph /  3.7 km/h 57 % 0 in /  0.0 mm
17:09 58.8 °F /  14.9 °C 44.1 °F /  6.7 °C 30 in /  1014.8 hPa NNE 3.5 mph /  5.6 km/h 3.5 mph /  5.6 km/h 58 % 0 in /  0.0 mm
17:14 58.6 °F /  14.8 °C 43.9 °F /  6.6 °C 30 in /  1014.8 hPa ESE 1.2 mph /  1.9 km/h   58 % 0 in /  0.0 mm
17:19 58.8 °F /  14.9 °C 44.1 °F /  6.7 °C 30 in /  1014.8 hPa SW 2.3 mph /  3.7 km/h 2.3 mph /  3.7 km/h 58 % 0 in /  0.0 mm
17:24 58.6 °F /  14.8 °C 44.2 °F /  6.8 °C 30 in /  1014.8 hPa Calm     59 % 0 in /  0.0 mm
17:29 58.5 °F /  14.7 °C 44.2 °F /  6.8 °C 30 in /  1014.8 hPa WNW 1.6 mph /  2.6 km/h 1.6 mph /  2.6 km/h 59 % 0 in /  0.0 mm
17:34 58.3 °F /  14.6 °C 44.1 °F /  6.7 °C 30 in /  1014.8 hPa SW 2.3 mph /  3.7 km/h 2.3 mph /  3.7 km/h 59 % 0 in /  0.0 mm
17:39 57.9 °F /  14.4 °C 44.1 °F /  6.7 °C 30 in /  1014.8 hPa West 2.3 mph /  3.7 km/h 2.3 mph /  3.7 km/h 60 % 0 in /  0.0 mm
17:44 57.9 °F /  14.4 °C 44.1 °F /  6.7 °C 30 in /  1014.8 hPa Calm     60 % 0 in /  0.0 mm
17:49 57.7 °F /  14.3 °C 43.9 °F /  6.6 °C 29.9 in /  1013.8 hPa WSW 2.4 mph /  3.9 km/h 2.4 mph /  3.9 km/h 60 % 0 in /  0.0 mm
17:54 57.4 °F /  14.1 °C 43.5 °F /  6.4 °C 29.9 in /  1013.8 hPa WNW 2.3 mph /  3.7 km/h 2.3 mph /  3.7 km/h 60 % 0 in /  0.0 mm
17:59 57.6 °F /  14.2 °C 43.9 °F /  6.6 °C 29.9 in /  1013.8 hPa NNE 2.3 mph /  3.7 km/h 2.3 mph /  3.7 km/h 60 % 0 in /  0.0 mm
18:04 56.8 °F /  13.8 °C 43.5 °F /  6.4 °C 30 in /  1014.8 hPa NNE 3.5 mph /  5.6 km/h 3.5 mph /  5.6 km/h 61 % 0 in /  0.0 mm
18:09 56.5 °F /  13.6 °C 43.2 °F /  6.2 °C 30 in /  1014.8 hPa ENE 2.9 mph /  4.7 km/h 2.9 mph /  4.7 km/h 61 % 0 in /  0.0 mm
18:14 56.5 °F /  13.6 °C 43.5 °F /  6.4 °C 30 in /  1014.8 hPa NNE 4.6 mph /  7.4 km/h 4.6 mph /  7.4 km/h 62 % 0 in /  0.0 mm
18:19 56.5 °F /  13.6 °C 43.5 °F /  6.4 °C 30 in /  1014.8 hPa ENE 3.5 mph /  5.6 km/h 3.5 mph /  5.6 km/h 62 % 0 in /  0.0 mm
18:24 56.1 °F /  13.4 °C 43.3 °F /  6.3 °C 30 in /  1014.8 hPa North 2.6 mph /  4.2 km/h 2.6 mph /  4.2 km/h 62 % 0 in /  0.0 mm
18:29 56.1 °F /  13.4 °C 43.3 °F /  6.3 °C 30 in /  1014.8 hPa NNE 2.3 mph /  3.7 km/h 2.3 mph /  3.7 km/h 62 % 0 in /  0.0 mm
18:34 55.9 °F /  13.3 °C 43.2 °F /  6.2 °C 30 in /  1014.8 hPa NNE 1.2 mph /  1.9 km/h   62 % 0 in /  0.0 mm
18:39 55.9 °F /  13.3 °C 43.2 °F /  6.2 °C 30 in /  1014.8 hPa WNW 2.3 mph /  3.7 km/h 2.3 mph /  3.7 km/h 62 % 0 in /  0.0 mm
18:44 55.8 °F /  13.2 °C 43 °F /  6.1 °C 30 in /  1014.8 hPa Calm     62 % 0 in /  0.0 mm
18:49 55.8 °F /  13.2 °C 43 °F /  6.1 °C 30 in /  1014.8 hPa NNE 1.2 mph /  1.9 km/h 1.2 mph /  1.9 km/h 62 % 0 in /  0.0 mm
18:54 55.6 °F /  13.1 °C 43.2 °F /  6.2 °C 30 in /  1014.8 hPa NNE 1.2 mph /  1.9 km/h 1.2 mph /  1.9 km/h 63 % 0 in /  0.0 mm
18:55 55.6 °F /  13.1 °C 43.2 °F /  6.2 °C 30 in /  1014.8 hPa NNE 1.2 mph /  1.9 km/h   63 % 0 in /  0.0 mm
19:00 55.2 °F /  12.9 °C 42.8 °F /  6.0 °C 30 in /  1014.8 hPa Calm     63 % 0 in /  0.0 mm
19:05 55.2 °F /  12.9 °C 42.8 °F /  6.0 °C 30 in /  1014.8 hPa Calm     63 % 0 in /  0.0 mm
19:10 55 °F /  12.8 °C 42.6 °F /  5.9 °C 30 in /  1014.8 hPa WNW 1.2 mph /  1.9 km/h   63 % 0 in /  0.0 mm
19:15 54.5 °F /  12.5 °C 42.6 °F /  5.9 °C 30 in /  1014.8 hPa WSW 1.6 mph /  2.6 km/h 1.6 mph /  2.6 km/h 64 % 0 in /  0.0 mm
19:20 54.5 °F /  12.5 °C 42.6 °F /  5.9 °C 29.9 in /  1013.8 hPa Calm     64 % 0 in /  0.0 mm
19:25 54.3 °F /  12.4 °C 42.4 °F /  5.8 °C 29.9 in /  1013.8 hPa West 1.2 mph /  1.9 km/h 1.2 mph /  1.9 km/h 64 % 0 in /  0.0 mm
19:30 54.5 °F /  12.5 °C 42.6 °F /  5.9 °C 29.9 in /  1013.8 hPa West 2.3 mph /  3.7 km/h 2.3 mph /  3.7 km/h 64 % 0 in /  0.0 mm
19:35 54.7 °F /  12.6 °C 42.6 °F /  5.9 °C 29.9 in /  1013.8 hPa WSW 2.3 mph /  3.7 km/h 2.3 mph /  3.7 km/h 64 % 0 in /  0.0 mm
19:40 54.5 °F /  12.5 °C 42.6 °F /  5.9 °C 29.9 in /  1013.8 hPa West 1.4 mph /  2.3 km/h 1.4 mph /  2.3 km/h 64 % 0 in /  0.0 mm
19:45 54.3 °F /  12.4 °C 42.4 °F /  5.8 °C 29.9 in /  1013.8 hPa West 1.2 mph /  1.9 km/h   64 % 0 in /  0.0 mm
19:50 54.3 °F /  12.4 °C 42.8 °F /  6.0 °C 29.9 in /  1013.8 hPa West 1.6 mph /  2.6 km/h 1.6 mph /  2.6 km/h 65 % 0 in /  0.0 mm
19:55 54.3 °F /  12.4 °C 42.4 °F /  5.8 °C 29.9 in /  1013.8 hPa SW 3.5 mph /  5.6 km/h 3.5 mph /  5.6 km/h 64 % 0 in /  0.0 mm
20:00 54.3 °F /  12.4 °C 42.8 °F /  6.0 °C 29.9 in /  1013.8 hPa WSW 2 mph /  3.2 km/h   65 % 0 in /  0.0 mm
20:05 54.1 °F /  12.3 °C 42.6 °F /  5.9 °C 29.9 in /  1013.8 hPa WNW 2.3 mph /  3.7 km/h 2.3 mph /  3.7 km/h 65 % 0 in /  0.0 mm
20:10 54.3 °F /  12.4 °C 42.8 °F /  6.0 °C 29.9 in /  1013.8 hPa West 1.2 mph /  1.9 km/h   65 % 0 in /  0.0 mm
20:15 54.1 °F /  12.3 °C 42.6 °F /  5.9 °C 29.9 in /  1013.8 hPa WNW 2.4 mph /  3.9 km/h 2.4 mph /  3.9 km/h 65 % 0 in /  0.0 mm
20:20 54.3 °F /  12.4 °C 42.8 °F /  6.0 °C 29.9 in /  1013.8 hPa WSW 3.5 mph /  5.6 km/h 3.5 mph /  5.6 km/h 65 % 0 in /  0.0 mm
20:21 54.3 °F /  12.4 °C 42.8 °F /  6.0 °C 29.9 in /  1013.8 hPa SW 3.5 mph /  5.6 km/h 3.5 mph /  5.6 km/h 65 % 0 in /  0.0 mm
20:26 55 °F /  12.8 °C 43.2 °F /  6.2 °C 29.9 in /  1013.8 hPa West 2.3 mph /  3.7 km/h 2.3 mph /  3.7 km/h 64 % 0 in /  0.0 mm
20:31 55.6 °F /  13.1 °C 43.5 °F /  6.4 °C 29.9 in /  1013.8 hPa WSW 3.5 mph /  5.6 km/h 3.5 mph /  5.6 km/h 64 % 0 in /  0.0 mm
20:36 55.8 °F /  13.2 °C 43.9 °F /  6.6 °C 29.9 in /  1013.8 hPa West 3.5 mph /  5.6 km/h 3.5 mph /  5.6 km/h 64 % 0 in /  0.0 mm
20:41 56.3 °F /  13.5 °C 43.9 °F /  6.6 °C 29.9 in /  1013.8 hPa WSW 5.8 mph /  9.3 km/h 5.8 mph /  9.3 km/h 63 % 0 in /  0.0 mm
20:46 56.7 °F /  13.7 °C 44.2 °F /  6.8 °C 29.9 in /  1013.8 hPa West 4.6 mph /  7.4 km/h 4.6 mph /  7.4 km/h 63 % 0 in /  0.0 mm
20:51 56.7 °F /  13.7 °C 44.2 °F /  6.8 °C 29.9 in /  1012.8 hPa WSW 4.6 mph /  7.4 km/h 4.6 mph /  7.4 km/h 63 % 0 in /  0.0 mm
20:56 56.7 °F /  13.7 °C 43.9 °F /  6.6 °C 29.9 in /  1012.8 hPa WSW 4.3 mph /  6.9 km/h 4.3 mph /  6.9 km/h 62 % 0 in /  0.0 mm
21:01 56.3 °F /  13.5 °C 43.3 °F /  6.3 °C 29.9 in /  1012.8 hPa SW 3.8 mph /  6.1 km/h 3.8 mph /  6.1 km/h 62 % 0 in /  0.0 mm
21:06 56.7 °F /  13.7 °C 43.9 °F /  6.6 °C 29.9 in /  1012.8 hPa West 3.5 mph /  5.6 km/h 3.5 mph /  5.6 km/h 62 % 0 in /  0.0 mm
21:11 56.3 °F /  13.5 °C 43.3 °F /  6.3 °C 29.9 in /  1012.8 hPa West 4.6 mph /  7.4 km/h 4.6 mph /  7.4 km/h 62 % 0 in /  0.0 mm
21:16 56.5 °F /  13.6 °C 43.5 °F /  6.4 °C 29.9 in /  1012.8 hPa WSW 3.5 mph /  5.6 km/h 3.5 mph /  5.6 km/h 62 % 0 in /  0.0 mm
21:21 56.3 °F /  13.5 °C 43.3 °F /  6.3 °C 29.9 in /  1012.8 hPa WSW 2.2 mph /  3.5 km/h   62 % 0 in /  0.0 mm
21:26 56.1 °F /  13.4 °C 43.3 °F /  6.3 °C 29.9 in /  1012.8 hPa WSW 1.4 mph /  2.3 km/h 1.4 mph /  2.3 km/h 62 % 0 in /  0.0 mm
21:31 56.1 °F /  13.4 °C 43.3 °F /  6.3 °C 29.9 in /  1012.8 hPa SW 1.2 mph /  1.9 km/h   62 % 0 in /  0.0 mm
21:36 55.8 °F /  13.2 °C 43 °F /  6.1 °C 29.9 in /  1011.7 hPa Calm     62 % 0 in /  0.0 mm
21:41 55.6 °F /  13.1 °C 42.8 °F /  6.0 °C 29.9 in /  1011.7 hPa NNE 2 mph /  3.2 km/h 2 mph /  3.2 km/h 62 % 0 in /  0.0 mm
21:46 55.6 °F /  13.1 °C 42.8 °F /  6.0 °C 29.9 in /  1011.7 hPa NW 2.3 mph /  3.7 km/h 2.3 mph /  3.7 km/h 62 % 0 in /  0.0 mm
21:51 55.4 °F /  13.0 °C 42.6 °F /  5.9 °C 29.9 in /  1011.7 hPa NNW 3.5 mph /  5.6 km/h 3.5 mph /  5.6 km/h 62 % 0 in /  0.0 mm
21:56 55 °F /  12.8 °C 42.3 °F /  5.7 °C 29.9 in /  1011.7 hPa West 2.3 mph /  3.7 km/h 2.3 mph /  3.7 km/h 62 % 0 in /  0.0 mm
22:01 54.5 °F /  12.5 °C 41.7 °F /  5.4 °C 29.9 in /  1011.7 hPa SW 2.3 mph /  3.7 km/h 2.3 mph /  3.7 km/h 62 % 0 in /  0.0 mm
22:06 54.5 °F /  12.5 °C 41.7 °F /  5.4 °C 29.9 in /  1011.7 hPa WSW 2.6 mph /  4.2 km/h   62 % 0 in /  0.0 mm
22:11 54 °F /  12.2 °C 41.5 °F /  5.3 °C 29.9 in /  1011.7 hPa WNW 2.6 mph /  4.2 km/h 2.6 mph /  4.2 km/h 63 % 0 in /  0.0 mm
22:16 54.3 °F /  12.4 °C 42.1 °F /  5.6 °C 29.9 in /  1011.7 hPa WSW 3.5 mph /  5.6 km/h 3.5 mph /  5.6 km/h 63 % 0 in /  0.0 mm
22:21 54.9 °F /  12.7 °C 42.4 °F /  5.8 °C 29.9 in /  1011.7 hPa WSW 3.5 mph /  5.6 km/h 3.5 mph /  5.6 km/h 63 % 0 in /  0.0 mm
22:23 54.9 °F /  12.7 °C 42.4 °F /  5.8 °C 29.9 in /  1011.7 hPa WSW 4.6 mph /  7.4 km/h 4.6 mph /  7.4 km/h 63 % 0 in /  0.0 mm
22:26 54.9 °F /  12.7 °C 42.4 °F /  5.8 °C 29.9 in /  1011.7 hPa NNW 2.4 mph /  3.9 km/h 2.4 mph /  3.9 km/h 63 % 0 in /  0.0 mm
22:31 54.9 °F /  12.7 °C 42.4 °F /  5.8 °C 29.9 in /  1011.7 hPa West 3.6 mph /  5.8 km/h 3.6 mph /  5.8 km/h 63 % 0 in /  0.0 mm
22:36 54.9 °F /  12.7 °C 42.4 °F /  5.8 °C 29.9 in /  1011.7 hPa WSW 4.6 mph /  7.4 km/h 4.6 mph /  7.4 km/h 63 % 0 in /  0.0 mm
22:41 54.9 °F /  12.7 °C 42.4 °F /  5.8 °C 29.9 in /  1011.7 hPa WNW 3.5 mph /  5.6 km/h 3.5 mph /  5.6 km/h 63 % 0 in /  0.0 mm
22:46 54.9 °F /  12.7 °C 42.4 °F /  5.8 °C 29.9 in /  1011.7 hPa SSE 2.3 mph /  3.7 km/h 2.3 mph /  3.7 km/h 63 % 0 in /  0.0 mm
22:51 55 °F /  12.8 °C 42.6 °F /  5.9 °C 29.9 in /  1011.7 hPa SSW 2.3 mph /  3.7 km/h 2.3 mph /  3.7 km/h 63 % 0 in /  0.0 mm
22:56 54.9 °F /  12.7 °C 42.4 °F /  5.8 °C 29.9 in /  1011.7 hPa WNW 2.3 mph /  3.7 km/h   63 % 0 in /  0.0 mm
23:01 54.9 °F /  12.7 °C 42.4 °F /  5.8 °C 29.9 in /  1011.7 hPa WSW 2.3 mph /  3.7 km/h 2.3 mph /  3.7 km/h 63 % 0 in /  0.0 mm
23:06 55 °F /  12.8 °C 42.6 °F /  5.9 °C 29.8 in /  1010.7 hPa NNW 5.9 mph /  9.5 km/h 5.9 mph /  9.5 km/h 63 % 0 in /  0.0 mm
23:11 55 °F /  12.8 °C 42.6 °F /  5.9 °C 29.8 in /  1010.7 hPa NW 2.4 mph /  3.9 km/h 2.4 mph /  3.9 km/h 63 % 0 in /  0.0 mm
23:16 55.2 °F /  12.9 °C 42.8 °F /  6.0 °C 29.8 in /  1010.7 hPa South 5.8 mph /  9.3 km/h 5.8 mph /  9.3 km/h 63 % 0 in /  0.0 mm
23:21 55.4 °F /  13.0 °C 43 °F /  6.1 °C 29.8 in /  1010.7 hPa SW 9.2 mph /  14.8 km/h 9.2 mph /  14.8 km/h 63 % 0 in /  0.0 mm
23:26 55.8 °F /  13.2 °C 43.9 °F /  6.6 °C 29.8 in /  1010.7 hPa West 9.2 mph /  14.8 km/h 9.2 mph /  14.8 km/h 64 % 0 in /  0.0 mm
23:31 55.9 °F /  13.3 °C 43.9 °F /  6.6 °C 29.8 in /  1010.7 hPa WSW 8.1 mph /  13.0 km/h 8.1 mph /  13.0 km/h 64 % 0 in /  0.0 mm
23:36 56.1 °F /  13.4 °C 44.1 °F /  6.7 °C 29.8 in /  1010.7 hPa WSW 8.1 mph /  13.0 km/h 8.1 mph /  13.0 km/h 64 % 0 in /  0.0 mm
23:41 56.1 °F /  13.4 °C 44.1 °F /  6.7 °C 29.8 in /  1010.7 hPa WNW 14 mph /  22.5 km/h 14 mph /  22.5 km/h 64 % 0 in /  0.0 mm
23:46 56.1 °F /  13.4 °C 44.1 °F /  6.7 °C 29.8 in /  1010.7 hPa SW 9.2 mph /  14.8 km/h 9.2 mph /  14.8 km/h 64 % 0 in /  0.0 mm
23:51 56.1 °F /  13.4 °C 44.1 °F /  6.7 °C 29.8 in /  1010.0 hPa West 9.2 mph /  14.8 km/h 9.2 mph /  14.8 km/h 64 % 0 in /  0.0 mm
23:56 55.9 °F /  13.3 °C 43.9 °F /  6.6 °C 29.8 in /  1010.0 hPa West 4.6 mph /  7.4 km/h 4.6 mph /  7.4 km/h 64 % 0 in /  0.0 mm
Meteo Sesrovires
Elogis d' Weather Underground - 4 mb

Guio original per  Jim McMurry - jmcmurry@mwt.net Adaptat per a la plantilla per  Wim van der Kuil - Leuven-Template.eu

Trobareu la nostra informacio del temps tambe a:

Weather Underground

AWEKAS